Time;durP1;ratioP1;P1;durP2;ratioP2;P2;SDS_P1;SDS_P2;PMS_P1;PMS_P2;Temp;Humidity;BMP_temperature;BMP_pressure;BME280_temperature;BME280_humidity;BME280_pressure;Samples;Min_cycle;Max_cycle;Signal;HPM_P1;HPM_P2
2023/10/11 00:00:38;;;;;;;5.55;2.28;;;16.40;99.90;;;;;;5114412;28;20212;-62
2023/10/11 00:05:42;;;;;;;2.78;2.08;;;16.50;99.90;;;;;;5114258;28;20142;-62
2023/10/11 00:08:09;;;;;;;1.73;0.85;;;16.40;99.90;;;;;;5113805;28;20055;-64
2023/10/11 00:10:43;;;;;;;1.95;1.85;;;16.60;99.90;;;;;;5113919;28;20403;-63
2023/10/11 00:13:15;;;;;;;1.90;1.02;;;16.00;99.90;;;;;;5114119;28;20048;-62
2023/10/11 00:15:42;;;;;;;13.55;1.75;;;16.60;99.90;;;;;;5114017;28;20055;-62
2023/10/11 00:18:08;;;;;;;3.97;1.50;;;16.70;99.90;;;;;;5114114;28;20126;-62
2023/10/11 00:23:04;;;;;;;5.22;2.25;;;16.80;99.90;;;;;;5114020;28;19923;-62
2023/10/11 00:25:30;;;;;;;;;;;16.40;99.90;;;;;;5114168;28;20043;-64
2023/10/11 00:27:59;;;;;;;1.40;0.90;;;16.70;99.90;;;;;;5113801;28;20088;-62
2023/10/11 00:30:30;;;;;;;2.50;2.10;;;16.90;99.90;;;;;;5113674;28;20050;-62
2023/10/11 00:32:57;;;;;;;1.48;1.08;;;16.50;99.90;;;;;;5113941;28;20530;-63
2023/10/11 00:35:25;;;;;;;2.65;1.02;;;16.70;99.90;;;;;;5113687;28;20044;-62
2023/10/11 00:37:54;;;;;;;1.33;1.23;;;16.20;99.90;;;;;;5113670;28;20079;-63
2023/10/11 00:40:27;;;;;;;2.25;1.05;;;16.40;99.90;;;;;;5113533;28;20047;-62
2023/10/11 00:42:57;;;;;;;0.65;0.65;;;16.30;99.90;;;;;;5113489;28;20445;-62
2023/10/11 00:45:25;;;;;;;1.77;1.42;;;16.50;99.90;;;;;;5113614;28;20057;-63
2023/10/11 00:47:55;;;;;;;1.13;1.02;;;16.60;99.90;;;;;;5113517;28;20562;-62
2023/10/11 00:50:22;;;;;;;10.57;2.00;;;16.80;99.90;;;;;;5113601;28;20048;-61
2023/10/11 00:52:50;;;;;;;1.45;1.27;;;16.70;99.90;;;;;;5113534;28;20051;-63
2023/10/11 00:55:29;;;;;;;3.53;1.23;;;16.10;99.90;;;;;;5113413;27;20548;-62
2023/10/11 00:57:56;;;;;;;3.60;1.85;;;16.80;99.90;;;;;;5113906;28;20086;-62
2023/10/11 01:00:23;;;;;;;1.88;1.10;;;16.80;99.90;;;;;;5113694;28;20079;-62
2023/10/11 01:02:52;;;;;;;2.00;1.83;;;16.60;99.90;;;;;;5113262;28;20062;-62
2023/10/11 01:05:19;;;;;;;1.65;1.50;;;16.10;99.90;;;;;;5113126;28;20070;-64
2023/10/11 01:07:45;;;;;;;0.77;0.77;;;16.00;99.90;;;;;;5112979;28;20453;-62
2023/10/11 01:10:12;;;;;;;1.33;1.05;;;15.70;99.90;;;;;;5113228;28;20052;-62
2023/10/11 01:12:40;;;;;;;3.20;1.45;;;16.90;99.90;;;;;;5113012;28;20070;-63
2023/10/11 01:15:11;;;;;;;3.42;1.67;;;16.40;99.90;;;;;;5112980;28;20043;-62
2023/10/11 01:17:40;;;;;;;1.52;1.42;;;16.50;99.90;;;;;;5112928;28;20043;-62
2023/10/11 01:20:13;;;;;;;1.08;1.00;;;15.80;99.90;;;;;;5111967;28;20051;-61
2023/10/11 01:22:41;;;;;;;2.05;1.27;;;16.60;99.90;;;;;;5112529;28;20055;-65
2023/10/11 01:25:07;;;;;;;1.77;0.70;;;16.50;99.90;;;;;;5112717;28;20210;-61
2023/10/11 01:27:36;;;;;;;0.85;0.85;;;16.50;99.90;;;;;;5112632;28;20126;-62
2023/10/11 01:30:07;;;;;;;1.58;1.48;;;15.80;99.90;;;;;;5112557;28;20047;-62
2023/10/11 01:32:37;;;;;;;0.95;0.90;;;15.90;99.90;;;;;;5112572;28;20388;-62
2023/10/11 01:35:04;;;;;;;1.65;1.08;;;15.90;99.90;;;;;;5112403;28;20051;-63
2023/10/11 01:37:36;;;;;;;2.50;1.20;;;15.80;99.90;;;;;;5112487;28;20108;-61
2023/10/11 01:40:07;;;;;;;4.68;2.13;;;16.00;99.90;;;;;;5112528;28;20054;-62
2023/10/11 01:42:36;;;;;;;2.05;1.40;;;16.80;99.90;;;;;;5112469;28;20407;-62
2023/10/11 01:45:08;;;;;;;3.38;2.03;;;16.10;99.90;;;;;;5112229;28;20043;-62
2023/10/11 01:47:36;;;;;;;1.55;1.45;;;16.80;99.90;;;;;;5112223;28;20495;-62
2023/10/11 01:50:03;;;;;;;1.05;0.80;;;16.60;99.90;;;;;;5112331;28;20062;-63
2023/10/11 01:52:29;;;;;;;2.53;0.95;;;15.60;99.90;;;;;;5112433;28;20104;-63
2023/10/11 01:54:57;;;;;;;2.30;0.93;;;16.20;99.90;;;;;;5112183;28;20127;-62
2023/10/11 01:57:26;;;;;;;7.32;1.08;;;16.50;99.90;;;;;;5112209;28;20093;-64
2023/10/11 01:59:52;;;;;;;1.40;1.30;;;16.40;99.90;;;;;;5112392;28;20059;-62
2023/10/11 02:02:18;;;;;;;1.45;1.35;;;16.10;99.90;;;;;;5112445;28;20043;-62
2023/10/11 02:04:44;;;;;;;1.33;1.23;;;16.60;99.90;;;;;;5111930;28;20058;-62
2023/10/11 02:07:10;;;;;;;;;;;15.80;99.90;;;;;;5112592;28;20036;-62
2023/10/11 02:09:36;;;;;;;2.83;2.38;;;16.20;99.90;;;;;;5112054;28;20390;-62
2023/10/11 02:12:06;;;;;;;2.38;1.52;;;15.80;99.90;;;;;;5111989;28;20058;-62
2023/10/11 02:14:32;;;;;;;2.05;1.83;;;16.50;99.90;;;;;;5111802;28;20477;-63
2023/10/11 02:16:59;;;;;;;1.45;1.05;;;16.40;99.90;;;;;;5112001;28;20135;-62
2023/10/11 02:19:25;;;;;;;1.05;0.98;;;16.40;99.90;;;;;;5111991;28;20044;-62
2023/10/11 02:21:53;;;;;;;;;;;17.00;99.90;;;;;;5112328;28;20525;-62
2023/10/11 02:24:19;;;;;;;6.22;1.20;;;16.70;99.90;;;;;;5111790;28;19986;-62
2023/10/11 02:26:49;;;;;;;12.45;2.17;;;16.80;99.90;;;;;;5111705;28;20107;-62
2023/10/11 02:29:20;;;;;;;0.68;0.68;;;16.50;99.90;;;;;;5111684;28;20534;-61
2023/10/11 02:31:54;;;;;;;2.17;2.08;;;16.00;99.90;;;;;;5112713;28;20062;-62
2023/10/11 02:34:22;;;;;;;0.90;0.90;;;16.50;99.90;;;;;;5116045;28;20047;-62
2023/10/11 02:37:10;;;;;;;1.17;1.05;;;16.60;99.90;;;;;;5115857;28;20460;-62
2023/10/11 02:39:42;;;;;;;2.10;1.42;;;16.00;99.90;;;;;;5115412;28;20108;-62
2023/10/11 02:42:08;;;;;;;2.08;1.27;;;15.60;99.90;;;;;;5116007;28;20149;-62
2023/10/11 02:44:39;;;;;;;3.67;1.48;;;16.40;99.90;;;;;;5115801;28;20085;-62
2023/10/11 02:47:06;;;;;;;3.38;2.00;;;16.80;99.90;;;;;;5115899;28;20043;-61
2023/10/11 02:49:33;;;;;;;1.52;0.75;;;16.40;99.90;;;;;;5115753;28;20407;-64
2023/10/11 02:52:05;;;;;;;3.58;1.48;;;16.70;99.90;;;;;;5115812;28;20044;-64
2023/10/11 02:54:38;;;;;;;1.23;1.10;;;16.70;99.90;;;;;;5114794;28;20376;-62
2023/10/11 02:57:18;;;;;;;1.27;0.70;;;16.40;99.90;;;;;;5115820;28;20138;-63
2023/10/11 02:59:44;;;;;;;0.73;0.73;;;15.90;99.90;;;;;;5115727;28;20047;-63
2023/10/11 03:02:15;;;;;;;12.15;2.15;;;15.80;99.90;;;;;;5115565;28;20051;-63
2023/10/11 03:04:41;;;;;;;1.95;1.40;;;16.40;99.90;;;;;;5115204;28;20059;-62
2023/10/11 03:07:23;;;;;;;1.77;0.98;;;16.00;99.90;;;;;;5115489;28;20048;-61
2023/10/11 03:09:49;;;;;;;1.42;0.82;;;16.80;99.90;;;;;;5115561;28;20051;-63
2023/10/11 03:12:18;;;;;;;8.93;1.25;;;16.20;99.90;;;;;;5114164;28;20058;-64
2023/10/11 03:14:54;;;;;;;6.78;1.60;;;16.30;99.90;;;;;;5115295;28;20046;-61
2023/10/11 03:17:23;;;;;;;2.88;1.73;;;16.00;99.90;;;;;;5115149;28;20134;-63
2023/10/11 03:19:49;;;;;;;1.13;0.80;;;16.20;99.90;;;;;;5115332;28;20048;-63
2023/10/11 03:22:21;;;;;;;1.35;1.02;;;16.70;99.90;;;;;;5115215;28;20138;-62
2023/10/11 03:24:53;;;;;;;0.82;0.73;;;15.80;99.90;;;;;;5115108;28;20047;-62
2023/10/11 03:27:27;;;;;;;1.77;1.67;;;16.70;99.90;;;;;;5115027;28;20546;-63
2023/10/11 03:29:53;;;;;;;0.90;0.90;;;16.20;99.90;;;;;;5114947;28;20055;-62
2023/10/11 03:32:19;;;;;;;1.52;1.10;;;15.80;99.90;;;;;;5115059;28;20039;-62
2023/10/11 03:34:45;;;;;;;5.57;1.60;;;16.20;99.90;;;;;;5114989;28;20047;-62
2023/10/11 03:37:17;;;;;;;;;;;16.80;99.90;;;;;;5115330;28;20043;-62
2023/10/11 03:39:44;;;;;;;1.15;1.08;;;16.60;99.90;;;;;;5114989;28;19940;-62
2023/10/11 03:44:40;;;;;;;2.78;1.67;;;16.50;99.90;;;;;;5113630;28;20449;-61
2023/10/11 03:47:08;;;;;;;3.00;0.70;;;16.40;99.90;;;;;;5114763;28;20050;-61
2023/10/11 03:52:30;;;;;;;0.85;0.85;;;16.40;99.90;;;;;;5114559;28;20066;-62
2023/10/11 03:55:06;;;;;;;0.63;0.63;;;15.80;99.90;;;;;;5114358;28;20044;-62
2023/10/11 03:57:36;;;;;;;2.03;1.30;;;16.10;99.90;;;;;;5114709;27;20052;-61
2023/10/11 04:00:24;;;;;;;0.45;0.45;;;16.20;99.90;;;;;;5114444;28;20448;-62
2023/10/11 04:02:47;;;;;;;1.25;1.20;;;16.00;99.90;;;;;;5114282;28;20048;-62
2023/10/11 04:05:14;;;;;;;;;;;16.40;99.90;;;;;;5114298;28;20082;-63
2023/10/11 04:07:40;;;;;;;8.55;2.08;;;17.50;99.90;;;;;;5114385;28;19919;-62
2023/10/11 04:10:10;;;;;;;;;;;16.30;99.90;;;;;;5114761;28;20130;-62
2023/10/11 04:12:42;;;;;;;4.22;1.30;;;16.30;99.90;;;;;;5114420;28;20263;-62
2023/10/11 04:15:24;;;;;;;2.63;1.83;;;16.30;99.90;;;;;;5114182;27;20043;-62
2023/10/11 04:17:50;;;;;;;0.65;0.47;;;15.80;99.90;;;;;;5114059;28;20811;-64
2023/10/11 04:20:21;;;;;;;;;;;16.30;99.90;;;;;;5114528;28;20044;-63
2023/10/11 04:23:01;;;;;;;1.83;1.73;;;15.70;99.90;;;;;;5114077;28;19927;-62
2023/10/11 04:25:27;;;;;;;3.28;0.77;;;16.30;99.90;;;;;;5113790;28;20122;-62
2023/10/11 04:27:57;;;;;;;0.77;0.63;;;15.90;99.90;;;;;;5113721;28;20051;-62
2023/10/11 04:33:20;;;;;;;3.55;2.20;;;16.00;99.90;;;;;;5113827;28;20059;-62
2023/10/11 04:35:55;;;;;;;5.57;1.58;;;15.70;99.90;;;;;;5113676;28;20086;-62
2023/10/11 04:38:21;;;;;;;3.78;1.33;;;16.00;99.90;;;;;;5113603;28;20415;-63
2023/10/11 04:40:51;;;;;;;1.27;1.20;;;15.60;99.90;;;;;;5113416;28;20096;-62
2023/10/11 04:43:20;;;;;;;12.68;1.08;;;15.70;99.90;;;;;;5113840;28;20098;-62
2023/10/11 04:45:47;;;;;;;0.68;0.68;;;16.10;99.90;;;;;;5112044;28;20052;-62
2023/10/11 04:48:15;;;;;;;9.77;1.75;;;15.50;99.90;;;;;;5113687;28;20056;-62
2023/10/11 04:50:45;;;;;;;3.95;2.97;;;15.80;99.90;;;;;;5113581;28;20055;-64
2023/10/11 04:53:18;;;;;;;1.17;1.08;;;15.50;99.90;;;;;;5111849;28;20465;-65
2023/10/11 04:55:58;;;;;;;0.63;0.63;;;16.00;99.90;;;;;;5113070;28;20047;-63
2023/10/11 04:58:42;;;;;;;8.90;0.95;;;15.50;99.90;;;;;;5113223;28;20126;-62
2023/10/11 05:01:11;;;;;;;1.48;1.38;;;16.30;99.90;;;;;;5112990;27;20046;-62
2023/10/11 05:03:38;;;;;;;1.00;0.85;;;15.20;99.90;;;;;;5112765;28;20449;-62
2023/10/11 05:06:13;;;;;;;0.52;0.52;;;16.10;99.90;;;;;;5113143;28;20513;-62
2023/10/11 05:08:54;;;;;;;1.60;1.33;;;15.30;99.90;;;;;;5112865;28;20506;-62
2023/10/11 05:11:36;;;;;;;1.95;1.00;;;16.30;99.90;;;;;;5112956;28;20058;-62
2023/10/11 05:16:49;;;;;;;1.45;1.35;;;15.60;99.90;;;;;;5112912;28;20056;-62
2023/10/11 05:19:20;;;;;;;0.85;0.85;;;15.60;99.90;;;;;;5112831;28;20058;-62
2023/10/11 05:21:53;;;;;;;0.65;0.65;;;16.00;99.90;;;;;;5112744;28;20090;-63
2023/10/11 05:27:04;;;;;;;0.93;0.93;;;16.10;99.90;;;;;;5112883;28;20093;-62
2023/10/11 05:29:36;;;;;;;1.35;0.98;;;16.10;99.90;;;;;;5112777;28;20679;-62
2023/10/11 05:32:23;;;;;;;0.95;0.93;;;15.50;99.90;;;;;;5112606;27;20043;-62
2023/10/11 05:35:06;;;;;;;1.50;1.05;;;15.50;99.90;;;;;;5112411;28;20052;-63
2023/10/11 05:51:14;;;;;;;1.75;0.88;;;17.10;99.90;;;;;;5110558;28;20058;-63
2023/10/11 05:53:42;;;;;;;0.85;0.85;;;16.30;99.90;;;;;;5110731;28;20047;-62
2023/10/11 05:56:20;;;;;;;2.92;0.60;;;16.40;99.90;;;;;;5111975;28;20042;-62
2023/10/11 05:58:50;;;;;;;0.65;0.65;;;15.90;99.90;;;;;;5111816;28;20063;-63
2023/10/11 06:01:21;;;;;;;1.55;1.27;;;16.50;99.90;;;;;;5111139;28;20445;-64
2023/10/11 06:03:55;;;;;;;0.88;0.82;;;16.70;99.90;;;;;;5111456;28;20051;-62
2023/10/11 06:06:32;;;;;;;6.22;0.98;;;16.50;99.90;;;;;;5110793;28;20177;-63
2023/10/11 06:08:59;;;;;;;1.15;1.10;;;16.40;99.90;;;;;;5111012;28;20046;-62
2023/10/11 06:11:29;;;;;;;1.45;1.35;;;16.60;99.90;;;;;;5111542;28;20051;-63
2023/10/11 06:14:04;;;;;;;3.13;1.95;;;16.90;99.90;;;;;;5111429;28;20449;-65
2023/10/11 06:16:37;;;;;;;1.05;1.05;;;15.50;99.90;;;;;;5111587;28;20078;-63
2023/10/11 06:19:16;;;;;;;0.95;0.77;;;16.00;99.90;;;;;;5111812;28;20510;-63
2023/10/11 06:21:58;;;;;;;1.20;0.90;;;16.10;99.90;;;;;;5111179;28;20047;-66
2023/10/11 06:24:33;;;;;;;1.38;0.82;;;16.10;99.90;;;;;;5111516;28;20092;-64
2023/10/11 06:29:54;;;;;;;3.38;0.73;;;16.80;99.90;;;;;;5072262;28;20052;-61
2023/10/11 06:32:22;;;;;;;1.30;1.13;;;16.50;99.90;;;;;;5117553;28;20104;-61
2023/10/11 06:34:48;;;;;;;2.28;1.58;;;16.40;99.90;;;;;;5111581;28;20394;-61
2023/10/11 06:37:18;;;;;;;0.57;0.57;;;17.00;99.90;;;;;;5110497;28;20051;-62
2023/10/11 06:44:47;;;;;;;1.33;1.23;;;16.60;99.90;;;;;;5110818;28;20040;-62
2023/10/11 06:47:13;;;;;;;4.95;1.23;;;16.50;99.90;;;;;;5111154;28;20089;-64
2023/10/11 06:49:47;;;;;;;5.50;1.35;;;17.10;99.90;;;;;;5119104;28;20051;-61
2023/10/11 06:52:20;;;;;;;0.70;0.70;;;16.60;99.90;;;;;;5111038;28;20499;-62
2023/10/11 06:54:47;;;;;;;1.08;0.98;;;17.00;99.90;;;;;;5111146;28;20114;-61
2023/10/11 06:57:19;;;;;;;0.73;0.73;;;16.90;99.90;;;;;;5110917;28;20097;-62
2023/10/11 06:59:49;;;;;;;2.35;2.17;;;17.00;99.90;;;;;;5108992;27;20112;-62
2023/10/11 07:02:31;;;;;;;1.35;1.25;;;17.30;99.90;;;;;;5110904;28;20039;-61
2023/10/11 07:05:07;;;;;;;2.92;2.28;;;17.00;99.90;;;;;;5111237;28;20214;-63
2023/10/11 07:07:34;;;;;;;;;;;17.00;99.90;;;;;;5111919;28;20100;-62
2023/10/11 07:10:03;;;;;;;1.03;0.93;;;16.60;99.90;;;;;;5111488;28;19931;-63
2023/10/11 07:12:34;;;;;;;1.13;0.70;;;16.50;99.90;;;;;;5111274;28;20285;-62
2023/10/11 07:14:59;;;;;;;2.22;1.85;;;16.70;99.90;;;;;;5111235;28;20063;-63
2023/10/11 07:17:25;;;;;;;0.65;0.65;;;16.90;99.90;;;;;;5111514;28;20116;-63
2023/10/11 07:19:51;;;;;;;;;;;16.80;99.90;;;;;;5115682;28;20058;-62
2023/10/11 07:22:23;;;;;;;0.65;0.60;;;17.40;99.90;;;;;;5113814;28;19942;-61
2023/10/11 07:24:55;;;;;;;1.35;1.17;;;17.60;99.90;;;;;;5114979;28;20164;-61
2023/10/11 07:27:37;;;;;;;2.00;1.90;;;17.40;99.90;;;;;;5114896;28;20059;-62
2023/10/11 07:30:06;;;;;;;1.38;0.82;;;17.10;99.90;;;;;;5115131;28;20172;-61
2023/10/11 07:32:36;;;;;;;4.72;1.67;;;17.10;99.90;;;;;;5114992;27;20047;-63
2023/10/11 07:35:17;;;;;;;4.07;1.58;;;17.60;99.90;;;;;;5114873;28;20048;-62
2023/10/11 07:37:43;;;;;;;1.55;0.85;;;17.20;99.90;;;;;;5114790;28;20079;-62
2023/10/11 07:40:13;;;;;;;1.85;1.23;;;17.10;99.90;;;;;;5114635;28;20054;-62
2023/10/11 07:42:39;;;;;;;1.13;1.05;;;17.00;99.90;;;;;;5115079;28;20422;-61
2023/10/11 07:45:12;;;;;;;1.10;0.75;;;16.90;99.90;;;;;;5115099;27;20048;-61
2023/10/11 07:47:45;;;;;;;1.20;1.10;;;16.70;99.90;;;;;;5114993;28;20057;-62
2023/10/11 07:50:14;;;;;;;0.60;0.52;;;17.30;99.90;;;;;;5114726;28;20051;-61
2023/10/11 07:52:43;;;;;;;1.10;0.60;;;16.90;99.90;;;;;;5114399;28;20051;-62
2023/10/11 07:55:12;;;;;;;0.47;0.47;;;17.30;99.90;;;;;;5114601;28;20047;-62
2023/10/11 07:57:44;;;;;;;0.68;0.68;;;17.50;99.90;;;;;;5114382;28;20521;-62
2023/10/11 08:00:18;;;;;;;32.40;1.25;;;17.00;99.90;;;;;;5114430;28;20055;-61
2023/10/11 08:02:56;;;;;;;0.63;0.63;;;17.10;99.90;;;;;;5114392;28;20387;-62
2023/10/11 08:05:25;;;;;;;1.45;1.05;;;17.00;99.90;;;;;;5114127;28;20068;-63
2023/10/11 08:07:55;;;;;;;1.23;1.00;;;17.50;99.90;;;;;;5114279;28;20398;-61
2023/10/11 08:10:33;;;;;;;0.55;0.55;;;17.20;99.90;;;;;;5113164;28;20059;-62
2023/10/11 08:13:02;;;;;;;0.40;0.40;;;17.10;99.90;;;;;;5114114;28;20043;-62
2023/10/11 08:15:30;;;;;;;1.92;0.93;;;17.40;99.90;;;;;;5113891;28;20075;-62
2023/10/11 08:17:56;;;;;;;1.85;0.50;;;17.60;99.90;;;;;;5114162;28;20503;-62
2023/10/11 08:20:27;;;;;;;2.05;1.63;;;17.30;99.90;;;;;;5112736;28;20069;-61
2023/10/11 08:22:55;;;;;;;2.30;0.65;;;17.40;99.90;;;;;;5114049;28;20043;-64
2023/10/11 08:25:26;;;;;;;1.15;0.65;;;17.10;99.90;;;;;;5113784;28;20039;-62
2023/10/11 08:28:08;;;;;;;0.63;0.63;;;17.30;99.90;;;;;;5113648;28;20043;-62
2023/10/11 08:30:37;;;;;;;4.25;1.10;;;17.80;99.90;;;;;;5113370;28;20134;-62
2023/10/11 08:33:04;;;;;;;0.35;0.35;;;17.60;99.90;;;;;;5113812;28;20050;-64
2023/10/11 08:35:32;;;;;;;0.30;0.30;;;18.10;99.90;;;;;;5113762;28;20040;-61
2023/10/11 08:38:05;;;;;;;1.48;1.38;;;17.80;99.90;;;;;;5113855;28;20051;-64
2023/10/11 08:40:37;;;;;;;0.98;0.75;;;17.50;99.90;;;;;;5113610;28;20044;-61
2023/10/11 08:43:03;;;;;;;0.85;0.75;;;18.10;99.90;;;;;;5113689;28;20046;-64
2023/10/11 08:45:33;;;;;;;1.23;1.13;;;17.90;99.90;;;;;;5113403;28;20050;-61
2023/10/11 08:48:08;;;;;;;0.73;0.73;;;17.90;99.90;;;;;;5113470;28;20055;-61
2023/10/11 08:50:35;;;;;;;5.93;1.02;;;17.60;99.90;;;;;;5113392;27;20043;-62
2023/10/11 08:53:07;;;;;;;5.20;2.10;;;17.50;99.90;;;;;;5113170;28;20036;-61
2023/10/11 08:55:35;;;;;;;1.23;1.13;;;17.80;99.90;;;;;;5113583;28;20079;-64
2023/10/11 08:58:04;;;;;;;1.33;0.88;;;17.40;99.90;;;;;;5113205;28;20536;-61
2023/10/11 09:00:33;;;;;;;4.45;0.98;;;17.80;99.90;;;;;;5113189;28;20491;-61
2023/10/11 09:03:18;;;;;;;2.47;1.33;;;18.00;99.90;;;;;;5113060;28;20077;-62
2023/10/11 09:05:44;;;;;;;1.00;0.98;;;17.70;99.90;;;;;;5113232;28;20070;-61
2023/10/11 09:08:27;;;;;;;1.95;1.83;;;17.70;99.90;;;;;;5113273;28;20055;-62
2023/10/11 09:11:28;;;;;;;1.33;1.17;;;17.70;99.90;;;;;;5113108;28;20039;-61
2023/10/11 09:13:53;;;;;;;1.50;0.75;;;18.00;99.90;;;;;;5112633;28;20134;-61
2023/10/11 09:16:34;;;;;;;2.60;0.98;;;18.10;99.90;;;;;;5113086;28;20522;-61
2023/10/11 09:19:10;;;;;;;2.03;1.02;;;18.00;99.90;;;;;;5113355;28;20044;-60
2023/10/11 09:21:38;;;;;;;2.30;0.97;;;18.10;99.90;;;;;;5113170;28;20057;-64
2023/10/11 09:24:23;;;;;;;0.80;0.80;;;18.10;99.90;;;;;;5112823;28;20096;-62
2023/10/11 09:29:57;;;;;;;2.10;1.17;;;17.90;99.90;;;;;;5112750;28;20130;-62
2023/10/11 09:32:32;;;;;;;0.57;0.57;;;17.80;99.90;;;;;;5112679;28;20036;-61
2023/10/11 09:34:57;;;;;;;1.65;0.88;;;18.00;99.90;;;;;;5112794;28;20040;-61
2023/10/11 09:37:23;;;;;;;0.80;0.70;;;17.90;99.90;;;;;;5112629;28;20046;-61
2023/10/11 09:39:52;;;;;;;0.98;0.65;;;17.90;99.90;;;;;;5112654;28;20055;-61
2023/10/11 09:42:21;;;;;;;0.68;0.68;;;17.30;99.90;;;;;;5111678;28;20051;-62
2023/10/11 09:44:49;;;;;;;0.60;0.40;;;17.70;99.90;;;;;;5112288;28;20406;-63
2023/10/11 09:47:19;;;;;;;0.43;0.43;;;17.70;99.90;;;;;;5112301;28;20043;-62
2023/10/11 09:49:47;;;;;;;0.40;0.40;;;18.00;99.90;;;;;;5112522;28;20048;-62
2023/10/11 09:52:17;;;;;;;0.40;0.40;;;18.20;99.90;;;;;;5112411;28;20044;-61
2023/10/11 09:54:44;;;;;;;0.93;0.93;;;17.80;99.90;;;;;;5112353;28;20047;-62
2023/10/11 09:57:22;;;;;;;0.75;0.73;;;17.60;99.90;;;;;;5112199;28;20052;-61
2023/10/11 09:59:47;;;;;;;0.50;0.50;;;17.60;99.90;;;;;;5109124;28;20109;-62
2023/10/11 10:02:21;;;;;;;0.57;0.57;;;17.50;99.90;;;;;;5111609;28;20051;-61
2023/10/11 10:04:50;;;;;;;0.85;0.85;;;18.00;99.90;;;;;;5112088;28;20143;-62
2023/10/11 10:07:25;;;;;;;1.85;0.77;;;18.20;99.90;;;;;;5112074;28;20056;-62
2023/10/11 10:10:00;;;;;;;0.63;0.50;;;17.80;99.90;;;;;;5112027;28;20094;-61
2023/10/11 10:12:40;;;;;;;8.80;0.73;;;18.00;99.90;;;;;;5111939;28;20481;-62
2023/10/11 10:15:14;;;;;;;1.58;1.05;;;17.50;99.90;;;;;;5112040;28;20094;-62
2023/10/11 10:18:05;;;;;;;3.83;0.98;;;18.10;99.90;;;;;;5111980;28;20044;-61
2023/10/11 10:20:41;;;;;;;7.15;1.58;;;18.50;99.90;;;;;;5100523;28;20055;-62
2023/10/11 10:23:15;;;;;;;0.45;0.45;;;18.60;99.90;;;;;;5112097;28;20047;-62
2023/10/11 10:25:46;;;;;;;2.17;1.13;;;18.60;99.90;;;;;;5111834;28;20700;-61
2023/10/11 10:28:39;;;;;;;0.35;0.32;;;18.50;99.90;;;;;;5111956;28;20112;-63
2023/10/11 10:31:26;;;;;;;4.95;1.63;;;18.40;99.90;;;;;;5081143;28;20059;-62
2023/10/11 10:34:21;;;;;;;0.70;0.70;;;19.20;99.90;;;;;;5111439;28;20105;-61
2023/10/11 10:36:47;;;;;;;3.90;0.90;;;19.20;99.90;;;;;;5102808;28;20055;-61
2023/10/11 10:41:40;;;;;;;0.45;0.45;;;18.80;99.90;;;;;;5111853;28;20465;-62
2023/10/11 10:44:10;;;;;;;0.47;0.38;;;19.10;99.90;;;;;;5111703;28;20130;-61
2023/10/11 10:46:55;;;;;;;0.63;0.63;;;18.80;99.90;;;;;;5111598;28;20044;-62
2023/10/11 10:49:23;;;;;;;0.85;0.85;;;18.60;99.90;;;;;;5111561;28;20126;-61
2023/10/11 10:51:49;;;;;;;0.82;0.65;;;18.70;99.90;;;;;;5111444;28;20058;-62
2023/10/11 10:54:17;;;;;;;1.23;1.15;;;18.90;99.90;;;;;;5114642;28;20039;-62
2023/10/11 10:56:58;;;;;;;2.05;1.05;;;19.00;99.90;;;;;;5115750;28;20048;-61
2023/10/11 10:59:26;;;;;;;2.20;1.10;;;18.30;99.90;;;;;;5115648;28;20134;-61
2023/10/11 11:01:55;;;;;;;0.60;0.60;;;18.80;99.90;;;;;;5115485;28;20098;-61
2023/10/11 11:04:28;;;;;;;0.77;0.77;;;18.80;99.90;;;;;;5115174;28;20043;-61
2023/10/11 11:06:55;;;;;;;0.32;0.32;;;18.30;99.90;;;;;;5115232;28;20062;-61
2023/10/11 11:09:28;;;;;;;1.73;0.43;;;19.60;99.90;;;;;;5115483;28;20079;-61
2023/10/11 11:12:04;;;;;;;2.13;0.90;;;19.10;99.90;;;;;;5115547;28;20120;-61
2023/10/11 11:14:30;;;;;;;3.45;0.68;;;19.10;99.90;;;;;;5115370;28;20039;-60
2023/10/11 11:17:00;;;;;;;1.42;1.33;;;19.40;99.90;;;;;;5115109;28;20051;-64
2023/10/11 11:19:27;;;;;;;3.08;0.73;;;19.50;99.90;;;;;;5115307;28;20085;-62
2023/10/11 11:22:15;;;;;;;3.10;0.93;;;19.30;99.90;;;;;;5115303;28;20455;-61
2023/10/11 11:24:44;;;;;;;0.65;0.65;;;19.30;99.90;;;;;;5115105;27;20043;-62
2023/10/11 11:27:18;;;;;;;0.40;0.40;;;19.30;99.90;;;;;;5115096;28;20097;-61
2023/10/11 11:29:47;;;;;;;1.48;1.38;;;19.20;99.90;;;;;;5114885;27;20059;-62
2023/10/11 11:32:16;;;;;;;0.45;0.35;;;19.50;99.90;;;;;;5115063;28;20055;-62
2023/10/11 11:35:04;;;;;;;1.40;0.73;;;19.30;99.90;;;;;;5114968;28;20044;-63
2023/10/11 11:37:31;;;;;;;0.20;0.20;;;19.20;99.90;;;;;;5114860;28;20055;-61
2023/10/11 11:42:47;;;;;;;1.00;0.80;;;19.00;99.90;;;;;;5114708;28;20406;-61
2023/10/11 11:45:16;;;;;;;0.75;0.73;;;19.40;99.90;;;;;;5114683;27;20047;-63
2023/10/11 11:48:23;;;;;;;1.08;0.40;;;19.50;99.90;;;;;;5114700;28;20070;-61
2023/10/11 11:50:34;;;;;;;0.30;0.30;;;19.30;99.90;;;;;;5113375;28;20059;-63
2023/10/11 11:53:00;;;;;;;0.55;0.35;;;19.30;99.90;;;;;;5114564;28;20149;-61
2023/10/11 11:55:26;;;;;;;1.13;0.95;;;19.40;99.90;;;;;;5114528;28;20043;-62
2023/10/11 11:57:55;;;;;;;1.45;1.13;;;19.30;99.90;;;;;;5114475;28;20130;-62
2023/10/11 12:02:54;;;;;;;1.35;1.25;;;19.30;99.90;;;;;;5114194;28;20181;-63
2023/10/11 12:05:21;;;;;;;0.30;0.30;;;19.30;99.90;;;;;;5113417;28;20079;-62
2023/10/11 12:07:50;;;;;;;0.20;0.20;;;19.60;99.90;;;;;;5114248;28;20147;-61
2023/10/11 12:10:25;;;;;;;2.42;1.13;;;19.30;99.90;;;;;;5114261;28;20095;-62
2023/10/11 12:13:01;;;;;;;1.45;1.10;;;19.20;99.90;;;;;;5114242;28;20508;-63
2023/10/11 12:15:28;;;;;;;0.20;0.20;;;19.20;99.90;;;;;;5114113;28;20063;-61
2023/10/11 12:17:54;;;;;;;0.45;0.45;;;19.00;99.90;;;;;;5114389;28;20051;-61
2023/10/11 12:20:22;;;;;;;0.82;0.50;;;19.10;99.90;;;;;;5114511;28;20193;-61
2023/10/11 12:22:50;;;;;;;0.60;0.55;;;19.00;99.90;;;;;;5114395;28;20126;-61
2023/10/11 12:25:24;;;;;;;1.45;0.70;;;18.70;99.90;;;;;;5114349;27;20138;-62
2023/10/11 12:27:50;;;;;;;0.65;0.38;;;18.70;99.90;;;;;;5114245;28;20097;-61
2023/10/11 12:30:19;;;;;;;1.08;0.93;;;18.80;99.90;;;;;;5114031;28;20048;-64
2023/10/11 12:32:50;;;;;;;0.32;0.32;;;19.00;99.90;;;;;;5113942;28;20128;-62
2023/10/11 12:35:16;;;;;;;0.20;0.20;;;19.10;99.90;;;;;;5113927;28;20097;-61
2023/10/11 12:37:42;;;;;;;0.55;0.50;;;18.90;99.90;;;;;;5113844;28;20063;-64
2023/10/11 12:40:13;;;;;;;1.27;0.98;;;19.20;99.90;;;;;;5113722;28;20044;-63
2023/10/11 12:42:45;;;;;;;1.85;0.43;;;18.80;99.90;;;;;;5113536;28;20047;-62
2023/10/11 12:45:10;;;;;;;3.85;0.93;;;19.20;99.90;;;;;;5113674;28;20039;-61
2023/10/11 12:47:36;;;;;;;1.02;0.85;;;18.90;99.90;;;;;;5113544;28;20492;-61
2023/10/11 12:50:03;;;;;;;6.07;1.15;;;19.20;99.90;;;;;;5113485;28;20051;-62
2023/10/11 12:52:32;;;;;;;1.00;0.43;;;18.70;99.90;;;;;;5113391;28;20051;-62
2023/10/11 12:55:00;;;;;;;0.32;0.32;;;19.10;99.90;;;;;;5113227;28;20055;-61
2023/10/11 12:57:28;;;;;;;0.47;0.47;;;19.10;99.90;;;;;;5113456;28;20126;-62
2023/10/11 12:59:54;;;;;;;0.80;0.60;;;19.00;99.90;;;;;;5113417;28;20062;-61
2023/10/11 13:02:22;;;;;;;0.40;0.40;;;19.10;99.90;;;;;;5113293;28;20043;-61
2023/10/11 13:04:49;;;;;;;0.45;0.45;;;18.40;99.90;;;;;;5113067;28;20089;-62
2023/10/11 13:07:14;;;;;;;0.40;0.40;;;19.00;99.90;;;;;;5113234;28;20769;-61
2023/10/11 13:09:40;;;;;;;1.02;1.02;;;18.70;99.90;;;;;;5112917;28;20059;-61
2023/10/11 13:12:06;;;;;;;0.50;0.50;;;18.90;99.90;;;;;;5113163;28;20047;-61
2023/10/11 13:14:33;;;;;;;0.28;0.28;;;19.30;99.90;;;;;;5112979;28;20071;-63
2023/10/11 13:17:00;;;;;;;1.45;1.35;;;18.30;99.90;;;;;;5113013;28;20379;-62
2023/10/11 13:19:26;;;;;;;0.73;0.73;;;18.90;99.90;;;;;;5112934;28;20104;-61
2023/10/11 13:21:54;;;;;;;0.47;0.43;;;18.40;99.90;;;;;;5112765;28;20522;-61
2023/10/11 13:24:25;;;;;;;0.30;0.30;;;18.60;99.90;;;;;;5112580;28;20126;-61
2023/10/11 13:26:52;;;;;;;1.30;0.82;;;19.00;99.90;;;;;;5113016;28;20092;-61
2023/10/11 13:29:18;;;;;;;0.30;0.30;;;19.00;99.90;;;;;;5112793;28;20065;-62
2023/10/11 13:31:53;;;;;;;3.80;0.80;;;18.50;99.90;;;;;;5112728;28;20093;-61
2023/10/11 13:34:19;;;;;;;2.13;1.00;;;18.80;99.90;;;;;;5112697;28;20122;-62
2023/10/11 13:36:45;;;;;;;0.43;0.43;;;18.50;99.90;;;;;;5112721;28;20044;-61
2023/10/11 13:39:26;;;;;;;1.65;0.57;;;18.40;99.90;;;;;;5112958;28;20047;-62
2023/10/11 13:42:03;;;;;;;2.50;0.47;;;18.70;99.90;;;;;;5112673;28;20086;-61
2023/10/11 13:44:29;;;;;;;1.08;0.80;;;18.80;99.90;;;;;;5112416;28;20555;-62
2023/10/11 13:46:58;;;;;;;0.47;0.47;;;18.70;99.90;;;;;;5112362;28;20536;-61
2023/10/11 13:49:27;;;;;;;0.68;0.68;;;18.80;99.90;;;;;;5112242;28;20043;-61
2023/10/11 13:51:54;;;;;;;1.35;0.35;;;18.60;99.90;;;;;;5112493;28;20738;-61
2023/10/11 13:54:37;;;;;;;0.85;0.82;;;19.00;99.90;;;;;;5112313;28;20042;-61
2023/10/11 13:57:17;;;;;;;0.40;0.40;;;18.90;99.90;;;;;;5112175;28;20502;-62